createdAt,value
2023-03-25T00:01:16.963Z,8.57
2023-03-25T00:03:50.928Z,8.32
2023-03-25T00:06:21.158Z,8.35
2023-03-25T00:08:48.992Z,8.52
2023-03-25T00:11:16.863Z,8.63
2023-03-25T00:13:44.691Z,8.40
2023-03-25T00:16:12.641Z,8.40
2023-03-25T00:18:40.491Z,8.34
2023-03-25T00:21:11.730Z,8.41
2023-03-25T00:23:41.421Z,8.40
2023-03-25T00:26:09.581Z,8.48
2023-03-25T00:28:39.149Z,8.46
2023-03-25T00:31:09.474Z,8.55
2023-03-25T00:33:37.320Z,8.65
2023-03-25T00:36:05.783Z,8.75
2023-03-25T00:38:38.130Z,8.79
2023-03-25T00:41:14.020Z,8.74
2023-03-25T00:43:41.966Z,8.84
2023-03-25T00:46:09.849Z,8.84
2023-03-25T00:48:38.022Z,9.06
2023-03-25T00:51:09.830Z,9.04
2023-03-25T00:53:39.371Z,9.07
2023-03-25T00:56:08.374Z,8.98
2023-03-25T00:58:36.231Z,9.06
2023-03-25T01:01:10.803Z,9.11
2023-03-25T01:03:38.758Z,9.00
2023-03-25T01:06:11.551Z,9.01
2023-03-25T01:08:41.789Z,8.98
2023-03-25T01:11:18.903Z,8.97
2023-03-25T01:13:47.078Z,9.04
2023-03-25T01:16:14.985Z,9.12
2023-03-25T01:18:42.815Z,9.07
2023-03-25T01:21:10.710Z,9.01
2023-03-25T01:23:39.831Z,9.11
2023-03-25T01:26:07.998Z,9.17
2023-03-25T01:28:35.848Z,9.09
2023-03-25T01:31:08.418Z,9.01
2023-03-25T01:33:36.925Z,9.06
2023-03-25T01:36:09.392Z,9.05
2023-03-25T01:38:40.874Z,9.02
2023-03-25T01:41:11.203Z,8.93
2023-03-25T01:43:39.276Z,8.97
2023-03-25T01:46:07.244Z,9.00
2023-03-25T01:48:38.991Z,9.03
2023-03-25T01:51:15.404Z,9.00
2023-03-25T01:53:43.916Z,9.00
2023-03-25T01:56:15.872Z,9.09
2023-03-25T01:58:45.149Z,9.10
2023-03-25T02:01:15.049Z,9.04
2023-03-25T02:03:46.563Z,9.00
2023-03-25T02:06:19.393Z,8.97
2023-03-25T02:08:47.190Z,9.01
2023-03-25T02:11:18.020Z,8.93
2023-03-25T02:13:45.806Z,8.86
2023-03-25T02:16:27.728Z,8.82
2023-03-25T02:19:07.250Z,8.85
2023-03-25T02:22:03.845Z,8.65
2023-03-25T02:25:04.203Z,8.57
2023-03-25T02:27:46.030Z,8.48
2023-03-25T02:30:33.420Z,8.41
2023-03-25T02:33:42.228Z,8.36
2023-03-25T02:36:41.852Z,8.33
2023-03-25T02:39:15.777Z,8.34
2023-03-25T02:41:52.098Z,8.31
2023-03-25T02:44:30.213Z,8.28
2023-03-25T02:47:03.000Z,8.24
2023-03-25T02:49:34.846Z,8.33
2023-03-25T02:52:08.330Z,8.30
2023-03-25T02:54:41.464Z,8.20
2023-03-25T02:57:13.664Z,8.22
2023-03-25T02:59:43.960Z,8.16
2023-03-25T03:02:12.193Z,8.07
2023-03-25T03:04:48.750Z,8.06
2023-03-25T03:07:24.323Z,8.17
2023-03-25T03:10:01.548Z,8.15
2023-03-25T03:12:46.554Z,8.04
2023-03-25T03:15:38.590Z,7.95
2023-03-25T03:18:14.613Z,7.92
2023-03-25T03:20:55.167Z,7.91
2023-03-25T03:23:29.699Z,7.84
2023-03-25T03:26:06.020Z,7.81
2023-03-25T03:28:41.458Z,7.80
2023-03-25T03:31:47.567Z,7.75
2023-03-25T03:34:10.557Z,7.77
2023-03-25T03:36:45.718Z,7.77
2023-03-25T03:39:19.913Z,7.71
2023-03-25T03:41:53.761Z,7.71
2023-03-25T03:44:26.875Z,7.59
2023-03-25T03:47:00.188Z,7.57
2023-03-25T03:49:31.737Z,7.54
2023-03-25T03:52:08.247Z,7.53
2023-03-25T03:54:43.165Z,7.55
2023-03-25T03:57:17.846Z,7.41
2023-03-25T03:59:52.564Z,7.37
2023-03-25T04:02:27.557Z,7.33
2023-03-25T04:05:00.460Z,7.28
2023-03-25T04:07:39.100Z,7.32
2023-03-25T04:10:15.757Z,7.32
2023-03-25T04:12:48.748Z,7.19
2023-03-25T04:15:17.086Z,7.24
2023-03-25T04:17:44.992Z,7.27
2023-03-25T04:20:16.355Z,7.31
2023-03-25T04:22:45.669Z,7.25
2023-03-25T04:25:14.844Z,7.28
2023-03-25T04:27:48.679Z,7.26
2023-03-25T04:30:19.119Z,7.29
2023-03-25T04:32:48.139Z,7.42
2023-03-25T04:35:16.932Z,7.38
2023-03-25T04:37:45.713Z,7.49
2023-03-25T04:40:16.500Z,7.55
2023-03-25T04:42:46.504Z,7.57
2023-03-25T04:45:16.687Z,7.55
2023-03-25T04:47:47.576Z,7.62
2023-03-25T04:50:22.148Z,7.62
2023-03-25T04:52:50.473Z,7.51
2023-03-25T04:55:20.086Z,7.62
2023-03-25T04:57:48.767Z,7.57
2023-03-25T05:00:19.524Z,7.57
2023-03-25T05:02:50.735Z,7.47
2023-03-25T05:05:20.716Z,7.40
2023-03-25T05:07:50.107Z,7.36
2023-03-25T05:10:19.098Z,7.33
2023-03-25T05:12:47.007Z,7.29
2023-03-25T05:15:15.253Z,7.35
2023-03-25T05:17:44.054Z,7.26
2023-03-25T05:20:14.554Z,7.33
2023-03-25T05:22:43.252Z,7.35
2023-03-25T05:25:11.608Z,7.33
2023-03-25T05:27:40.057Z,7.36
2023-03-25T05:30:09.398Z,7.43
2023-03-25T05:32:37.372Z,7.48
2023-03-25T05:35:05.989Z,7.51
2023-03-25T05:37:35.341Z,7.56
2023-03-25T05:40:04.051Z,7.62
2023-03-25T05:42:47.086Z,7.62
2023-03-25T05:45:15.980Z,7.62
2023-03-25T05:47:44.279Z,7.65
2023-03-25T05:50:12.440Z,7.66
2023-03-25T05:52:42.551Z,7.70
2023-03-25T05:55:13.176Z,7.67
2023-03-25T05:57:41.204Z,7.63
2023-03-25T06:00:12.797Z,7.60
2023-03-25T06:02:43.320Z,7.63
2023-03-25T06:05:14.190Z,7.67
2023-03-25T06:07:46.004Z,7.61
2023-03-25T06:10:17.108Z,7.57
2023-03-25T06:12:46.523Z,7.61
2023-03-25T06:15:18.018Z,7.71
2023-03-25T06:17:47.529Z,7.75
2023-03-25T06:20:19.366Z,7.61
2023-03-25T06:22:48.579Z,7.62
2023-03-25T06:25:19.097Z,7.58
2023-03-25T06:27:49.299Z,7.69
2023-03-25T06:30:19.565Z,7.64
2023-03-25T06:32:50.520Z,7.60
2023-03-25T06:35:20.496Z,7.54
2023-03-25T06:37:50.693Z,7.40
2023-03-25T06:40:42.616Z,7.44
2023-03-25T06:43:10.585Z,7.30
2023-03-25T06:45:38.608Z,7.27
2023-03-25T06:48:19.636Z,7.22
2023-03-25T06:50:47.641Z,7.36
2023-03-25T06:53:18.943Z,7.28
2023-03-25T06:55:46.997Z,7.17
2023-03-25T06:58:15.051Z,7.39
2023-03-25T07:00:43.125Z,7.43
2023-03-25T07:03:11.974Z,7.46
2023-03-25T07:05:42.412Z,7.27
2023-03-25T07:08:10.286Z,7.34
2023-03-25T07:10:39.789Z,7.27
2023-03-25T07:13:07.708Z,7.09
2023-03-25T07:15:35.853Z,7.29
2023-03-25T07:18:03.828Z,7.31
2023-03-25T07:20:31.860Z,7.21
2023-03-25T07:22:59.760Z,7.29
2023-03-25T07:25:27.592Z,7.16
2023-03-25T07:27:56.953Z,7.20
2023-03-25T07:30:24.807Z,7.44
2023-03-25T07:32:52.675Z,7.19
2023-03-25T07:35:20.793Z,7.77
2023-03-25T07:37:48.789Z,7.60
2023-03-25T07:40:17.154Z,7.76
2023-03-25T07:42:45.652Z,7.69
2023-03-25T07:45:23.499Z,7.65
2023-03-25T07:47:53.924Z,7.55
2023-03-25T07:50:26.017Z,7.68
2023-03-25T07:52:54.575Z,7.49
2023-03-25T07:55:22.802Z,7.77
2023-03-25T07:57:50.728Z,7.84
2023-03-25T08:00:18.697Z,7.63
2023-03-25T08:02:47.924Z,7.40
2023-03-25T08:05:21.188Z,7.67
2023-03-25T08:07:49.158Z,7.33
2023-03-25T08:10:17.813Z,7.50
2023-03-25T08:12:46.365Z,7.40
2023-03-25T08:15:14.497Z,7.78
2023-03-25T08:17:42.282Z,7.97
2023-03-25T08:20:13.258Z,8.07
2023-03-25T08:22:41.395Z,8.07
2023-03-25T08:25:10.126Z,8.40
2023-03-25T08:27:38.219Z,8.86
2023-03-25T08:30:09.618Z,8.74
2023-03-25T08:32:38.508Z,8.70
2023-03-25T08:35:07.940Z,8.70
2023-03-25T08:37:37.831Z,8.63
2023-03-25T08:40:09.144Z,8.84
2023-03-25T08:42:37.374Z,8.67
2023-03-25T08:45:07.061Z,8.69
2023-03-25T08:47:34.932Z,8.74
2023-03-25T08:50:02.780Z,8.95
2023-03-25T08:52:30.672Z,9.09
2023-03-25T08:55:00.335Z,8.88
2023-03-25T08:57:28.277Z,8.64
2023-03-25T08:59:56.427Z,8.82
2023-03-25T09:02:24.444Z,8.98
2023-03-25T09:04:52.329Z,9.06
2023-03-25T09:07:20.148Z,8.84
2023-03-25T09:09:48.623Z,8.63
2023-03-25T09:12:18.079Z,8.78
2023-03-25T09:14:45.993Z,8.61
2023-03-25T09:17:13.846Z,8.43
2023-03-25T09:19:41.629Z,8.47
2023-03-25T09:22:09.464Z,8.38
2023-03-25T09:24:37.474Z,8.68
2023-03-25T09:27:05.397Z,8.43
2023-03-25T09:29:34.775Z,8.51
2023-03-25T09:32:02.789Z,8.84
2023-03-25T09:34:31.054Z,9.26
2023-03-25T09:36:59.443Z,9.84
2023-03-25T09:39:28.229Z,9.49
2023-03-25T09:42:09.512Z,9.25
2023-03-25T09:44:46.798Z,9.14
2023-03-25T09:47:16.835Z,9.72
2023-03-25T09:49:53.454Z,10.04
2023-03-25T09:52:26.769Z,9.62
2023-03-25T09:54:59.726Z,10.10
2023-03-25T09:57:31.601Z,9.91
2023-03-25T10:00:06.791Z,9.85
2023-03-25T10:02:41.904Z,9.82
2023-03-25T10:05:24.817Z,9.85
2023-03-25T10:08:13.417Z,9.95
2023-03-25T10:10:51.321Z,10.17
2023-03-25T10:13:27.208Z,9.81
2023-03-25T10:16:03.234Z,10.29
2023-03-25T10:18:46.785Z,10.34
2023-03-25T10:21:20.715Z,10.34
2023-03-25T10:23:54.808Z,10.29
2023-03-25T10:26:28.096Z,10.48
2023-03-25T10:29:04.303Z,10.63
2023-03-25T10:31:40.165Z,10.50
2023-03-25T10:34:15.466Z,10.24
2023-03-25T10:36:49.223Z,10.17
2023-03-25T10:39:20.084Z,10.16
2023-03-25T10:41:53.063Z,10.32
2023-03-25T10:44:23.454Z,10.35
2023-03-25T10:46:58.213Z,10.51
2023-03-25T10:49:30.599Z,10.43
2023-03-25T10:51:59.906Z,10.14
2023-03-25T10:54:31.695Z,10.16
2023-03-25T10:57:03.815Z,10.17
2023-03-25T10:59:36.022Z,10.68
2023-03-25T11:02:14.752Z,10.69
2023-03-25T11:04:44.877Z,10.89
2023-03-25T11:07:20.651Z,10.82
2023-03-25T11:09:48.764Z,10.63
2023-03-25T11:12:25.136Z,10.88
2023-03-25T11:14:58.988Z,11.21
2023-03-25T11:17:28.258Z,11.23
2023-03-25T11:20:02.064Z,10.92
2023-03-25T11:22:32.609Z,10.20
2023-03-25T11:25:03.425Z,10.25
2023-03-25T11:27:32.071Z,10.66
2023-03-25T11:30:04.537Z,10.89
2023-03-25T11:32:38.247Z,10.99
2023-03-25T11:35:15.733Z,10.72
2023-03-25T11:37:47.201Z,10.63
2023-03-25T11:40:17.978Z,10.46
2023-03-25T11:42:49.695Z,10.50
2023-03-25T11:45:22.949Z,10.80
2023-03-25T11:47:52.801Z,10.81
2023-03-25T11:50:24.192Z,10.30
2023-03-25T11:52:56.587Z,10.34
2023-03-25T11:55:28.326Z,10.48
2023-03-25T11:57:58.774Z,10.79
2023-03-25T12:00:37.326Z,10.78
2023-03-25T12:03:20.110Z,10.72
2023-03-25T12:05:59.724Z,10.97
2023-03-25T12:08:31.265Z,10.53
2023-03-25T12:11:06.172Z,10.89
2023-03-25T12:13:46.288Z,11.28
2023-03-25T12:16:24.094Z,11.04
2023-03-25T12:19:18.866Z,10.60
2023-03-25T12:22:02.530Z,10.36
2023-03-25T12:24:48.074Z,10.57
2023-03-25T12:27:29.672Z,10.54
2023-03-25T12:30:06.092Z,10.25
2023-03-25T12:32:43.487Z,10.12
2023-03-25T12:35:27.642Z,10.24
2023-03-25T12:38:11.066Z,10.38
2023-03-25T12:40:58.669Z,10.17
2023-03-25T12:43:35.932Z,10.38
2023-03-25T12:46:16.943Z,10.87
2023-03-25T12:49:00.365Z,10.72
2023-03-25T12:51:42.404Z,10.45
2023-03-25T12:54:25.822Z,10.34
2023-03-25T12:57:03.724Z,10.46
2023-03-25T12:59:55.300Z,10.43
2023-03-25T13:02:53.852Z,10.40
2023-03-25T13:05:26.495Z,10.20
2023-03-25T13:07:59.517Z,10.33
2023-03-25T13:10:33.492Z,10.01
2023-03-25T13:13:05.690Z,9.81
2023-03-25T13:15:36.625Z,9.96
2023-03-25T13:18:10.386Z,10.09
2023-03-25T13:20:42.599Z,10.40
2023-03-25T13:23:17.597Z,10.27
2023-03-25T13:25:50.043Z,10.41
2023-03-25T13:28:23.211Z,10.33
2023-03-25T13:30:51.834Z,10.33
2023-03-25T13:33:25.019Z,9.79
2023-03-25T13:35:56.446Z,9.62
2023-03-25T13:38:30.894Z,9.77
2023-03-25T13:41:09.539Z,9.97
2023-03-25T13:43:44.148Z,10.59
2023-03-25T13:46:14.791Z,10.42
2023-03-25T13:48:48.884Z,10.20
2023-03-25T13:51:16.809Z,10.11
2023-03-25T13:53:49.902Z,10.43
2023-03-25T13:56:47.086Z,10.15
2023-03-25T14:00:06.194Z,10.38
2023-03-25T14:03:01.494Z,9.89
2023-03-25T14:05:54.502Z,10.24
2023-03-25T14:09:04.683Z,10.52
2023-03-25T14:11:39.448Z,10.32
2023-03-25T14:14:11.283Z,10.45
2023-03-25T14:16:44.355Z,10.80
2023-03-25T14:19:16.696Z,11.05
2023-03-25T14:21:48.484Z,11.24
2023-03-25T14:24:29.633Z,11.16
2023-03-25T14:27:02.430Z,11.11
2023-03-25T14:29:37.644Z,11.24
2023-03-25T14:32:26.027Z,11.14
2023-03-25T14:35:00.546Z,11.19
2023-03-25T14:37:31.118Z,10.98
2023-03-25T14:41:02.969Z,10.88
2023-03-25T14:43:37.726Z,11.02
2023-03-25T14:46:07.453Z,11.04
2023-03-25T14:48:37.820Z,11.05
2023-03-25T14:51:23.715Z,10.90
2023-03-25T14:53:54.387Z,11.26
2023-03-25T14:56:26.690Z,11.41
2023-03-25T14:58:59.479Z,11.14
2023-03-25T15:01:32.794Z,11.05
2023-03-25T15:04:18.084Z,10.91
2023-03-25T15:06:49.050Z,10.87
2023-03-25T15:09:20.295Z,11.07
2023-03-25T15:11:57.623Z,11.29
2023-03-25T15:14:32.818Z,11.37
2023-03-25T15:17:07.018Z,11.70
2023-03-25T15:20:12.643Z,11.01
2023-03-25T15:22:40.625Z,10.63
2023-03-25T15:25:16.081Z,10.97
2023-03-25T15:28:00.160Z,11.15
2023-03-25T15:30:58.522Z,11.05
2023-03-25T15:33:42.336Z,11.02
2023-03-25T15:36:35.710Z,11.19
2023-03-25T15:39:27.278Z,10.84
2023-03-25T15:42:07.412Z,10.78
2023-03-25T15:45:04.450Z,11.02
2023-03-25T15:47:44.447Z,10.67
2023-03-25T15:50:22.092Z,10.78
2023-03-25T15:53:39.474Z,11.14
2023-03-25T15:56:13.220Z,11.15
2023-03-25T15:58:45.722Z,11.47
2023-03-25T16:01:21.562Z,11.49
2023-03-25T16:03:59.019Z,11.84
2023-03-25T16:06:28.474Z,12.14
2023-03-25T16:08:59.422Z,11.55
2023-03-25T16:11:29.510Z,11.43
2023-03-25T16:14:06.650Z,11.31
2023-03-25T16:16:37.078Z,11.27
2023-03-25T16:19:16.408Z,11.12
2023-03-25T16:21:44.380Z,11.16
2023-03-25T16:24:14.547Z,11.17
2023-03-25T16:26:45.001Z,10.90
2023-03-25T16:29:19.837Z,11.11
2023-03-25T16:31:56.466Z,10.69
2023-03-25T16:34:27.525Z,10.81
2023-03-25T16:36:57.086Z,10.69
2023-03-25T16:39:28.413Z,10.69
2023-03-25T16:42:02.729Z,10.68
2023-03-25T16:44:33.195Z,10.82
2023-03-25T16:47:02.322Z,10.76
2023-03-25T16:49:35.360Z,10.56
2023-03-25T16:52:08.616Z,10.56
2023-03-25T16:54:39.063Z,10.50
2023-03-25T16:57:08.413Z,10.47
2023-03-25T16:59:38.881Z,10.42
2023-03-25T17:02:25.868Z,10.37
2023-03-25T17:04:58.594Z,10.16
2023-03-25T17:07:30.563Z,10.03
2023-03-25T17:10:00.736Z,9.87
2023-03-25T17:12:30.142Z,9.83
2023-03-25T17:15:08.686Z,9.77
2023-03-25T17:17:43.591Z,9.72
2023-03-25T17:20:19.730Z,9.56
2023-03-25T17:23:04.215Z,9.39
2023-03-25T17:25:36.521Z,9.34
2023-03-25T17:28:26.681Z,9.15
2023-03-25T17:30:55.937Z,9.11
2023-03-25T17:33:33.941Z,9.00
2023-03-25T17:36:08.747Z,9.00
2023-03-25T17:38:40.165Z,8.94
2023-03-25T17:41:11.436Z,8.79
2023-03-25T17:43:44.953Z,8.72
2023-03-25T17:46:17.262Z,8.64
2023-03-25T17:48:45.508Z,8.54
2023-03-25T17:51:17.354Z,8.63
2023-03-25T17:53:45.456Z,8.54
2023-03-25T17:56:16.035Z,8.47
2023-03-25T17:58:44.281Z,8.47
2023-03-25T18:01:12.972Z,8.42
2023-03-25T18:03:41.522Z,8.32
2023-03-25T18:06:09.936Z,8.28
2023-03-25T18:08:39.470Z,8.27
2023-03-25T18:11:11.305Z,8.24
2023-03-25T18:13:45.567Z,8.21
2023-03-25T18:16:13.441Z,8.37
2023-03-25T18:18:41.313Z,8.31
2023-03-25T18:21:12.470Z,8.31
2023-03-25T18:23:44.576Z,8.26
2023-03-25T18:26:13.892Z,8.24
2023-03-25T18:28:43.736Z,8.25
2023-03-25T18:31:15.882Z,8.23
2023-03-25T18:33:43.978Z,8.17
2023-03-25T18:36:12.359Z,8.08
2023-03-25T18:38:42.231Z,7.93
2023-03-25T18:41:12.010Z,8.04
2023-03-25T18:43:39.814Z,8.03
2023-03-25T18:46:08.020Z,7.96
2023-03-25T18:48:36.129Z,7.96
2023-03-25T18:51:04.498Z,7.89
2023-03-25T18:53:32.502Z,7.84
2023-03-25T18:56:04.158Z,7.77
2023-03-25T18:58:33.862Z,7.78
2023-03-25T19:01:03.528Z,7.74
2023-03-25T19:03:31.710Z,7.71
2023-03-25T19:06:01.451Z,7.70
2023-03-25T19:08:29.321Z,7.64
2023-03-25T19:11:12.526Z,7.60
2023-03-25T19:13:47.428Z,7.69
2023-03-25T19:16:16.468Z,7.56
2023-03-25T19:18:47.465Z,7.57
2023-03-25T19:21:20.705Z,7.52
2023-03-25T19:23:48.628Z,7.54
2023-03-25T19:26:17.821Z,7.55
2023-03-25T19:28:48.416Z,7.46
2023-03-25T19:31:16.666Z,7.42
2023-03-25T19:33:44.913Z,7.41
2023-03-25T19:36:15.882Z,7.45
2023-03-25T19:38:45.951Z,7.42
2023-03-25T19:41:16.618Z,7.43
2023-03-25T19:43:46.220Z,7.44
2023-03-25T19:46:14.278Z,7.40
2023-03-25T19:48:42.114Z,7.35
2023-03-25T19:51:10.286Z,7.34
2023-03-25T19:53:38.260Z,7.35
2023-03-25T19:56:06.798Z,7.28
2023-03-25T19:58:38.069Z,7.32
2023-03-25T20:01:07.508Z,7.33
2023-03-25T20:03:36.650Z,7.37
2023-03-25T20:06:06.237Z,7.39
2023-03-25T20:08:34.774Z,7.39
2023-03-25T20:11:09.673Z,7.37
2023-03-25T20:13:40.549Z,7.42
2023-03-25T20:16:13.295Z,7.43
2023-03-25T20:18:42.319Z,7.39
2023-03-25T20:21:11.827Z,7.41
2023-03-25T20:23:39.944Z,7.40
2023-03-25T20:26:07.979Z,7.44
2023-03-25T20:28:37.416Z,7.44
2023-03-25T20:31:21.432Z,7.42
2023-03-25T20:33:50.615Z,7.41
2023-03-25T20:36:19.002Z,7.44
2023-03-25T20:38:57.844Z,7.54
2023-03-25T20:41:26.502Z,7.52
2023-03-25T20:43:54.327Z,7.45
2023-03-25T20:46:28.289Z,7.49
2023-03-25T20:48:56.482Z,7.45
2023-03-25T20:51:24.988Z,7.57
2023-03-25T20:53:53.299Z,7.53
2023-03-25T20:56:23.997Z,7.56
2023-03-25T20:58:52.359Z,7.57
2023-03-25T21:01:21.406Z,7.64
2023-03-25T21:03:51.994Z,7.62
2023-03-25T21:06:25.669Z,7.53
2023-03-25T21:09:01.012Z,7.58
2023-03-25T21:11:35.179Z,7.57
2023-03-25T21:14:05.723Z,7.66
2023-03-25T21:16:35.772Z,7.58
2023-03-25T21:19:05.124Z,7.60
2023-03-25T21:21:33.514Z,7.58
2023-03-25T21:24:03.517Z,7.53
2023-03-25T21:26:31.567Z,7.51
2023-03-25T21:28:59.827Z,7.45
2023-03-25T21:31:30.886Z,7.44
2023-03-25T21:34:00.094Z,7.47
2023-03-25T21:36:31.664Z,7.46
2023-03-25T21:39:01.413Z,7.50
2023-03-25T21:41:30.340Z,7.45
2023-03-25T21:43:58.301Z,7.57
2023-03-25T21:46:27.561Z,7.69
2023-03-25T21:48:58.482Z,7.66
2023-03-25T21:51:27.233Z,7.57
2023-03-25T21:53:58.231Z,7.59
2023-03-25T21:56:30.830Z,7.51
2023-03-25T21:58:58.790Z,7.61
2023-03-25T22:01:29.505Z,7.54
2023-03-25T22:03:58.983Z,7.47
2023-03-25T22:06:28.349Z,7.38
2023-03-25T22:08:57.977Z,7.38
2023-03-25T22:11:29.061Z,7.32
2023-03-25T22:13:56.952Z,7.33
2023-03-25T22:16:25.473Z,7.38
2023-03-25T22:18:53.861Z,7.28
2023-03-25T22:21:24.003Z,7.41
2023-03-25T22:23:55.269Z,7.23
2023-03-25T22:26:25.950Z,7.26
2023-03-25T22:28:55.757Z,7.22
2023-03-25T22:31:30.668Z,7.24
2023-03-25T22:34:02.870Z,7.21
2023-03-25T22:36:31.464Z,7.16
2023-03-25T22:38:59.406Z,7.21
2023-03-25T22:41:29.012Z,7.20
2023-03-25T22:43:57.392Z,7.27
2023-03-25T22:46:25.463Z,7.22
2023-03-25T22:48:53.428Z,7.15
2023-03-25T22:51:21.931Z,7.07
2023-03-25T22:53:49.714Z,7.12
2023-03-25T22:56:17.703Z,7.10
2023-03-25T22:58:46.840Z,7.13
2023-03-25T23:01:23.633Z,7.24
2023-03-25T23:03:54.618Z,7.16
2023-03-25T23:06:23.897Z,7.11
2023-03-25T23:08:52.636Z,7.09
2023-03-25T23:11:26.038Z,7.14
2023-03-25T23:13:57.809Z,7.13
2023-03-25T23:16:27.883Z,7.26
2023-03-25T23:18:55.791Z,7.22
2023-03-25T23:21:25.783Z,7.22
2023-03-25T23:23:56.825Z,7.24
2023-03-25T23:26:26.518Z,7.24
2023-03-25T23:29:00.233Z,7.29
2023-03-25T23:31:29.973Z,7.44
2023-03-25T23:33:59.627Z,7.48
2023-03-25T23:36:29.146Z,7.58
2023-03-25T23:38:58.636Z,7.50
2023-03-25T23:41:27.310Z,7.58
2023-03-25T23:43:56.922Z,7.66
2023-03-25T23:46:26.271Z,7.69
2023-03-25T23:48:55.109Z,7.75
2023-03-25T23:51:24.612Z,7.79
2023-03-25T23:53:53.018Z,7.91
2023-03-25T23:56:23.086Z,7.82
2023-03-25T23:58:51.717Z,7.85
